createdAt,value
2024-04-08T00:01:13.079Z,100.00
2024-04-08T00:03:41.107Z,100.00
2024-04-08T00:06:07.867Z,100.00
2024-04-08T00:08:34.574Z,100.00
2024-04-08T00:11:08.706Z,100.00
2024-04-08T00:13:38.811Z,100.00
2024-04-08T00:16:11.309Z,100.00
2024-04-08T00:18:38.109Z,100.00
2024-04-08T00:21:06.215Z,100.00
2024-04-08T00:23:36.379Z,100.00
2024-04-08T00:26:07.042Z,100.00
2024-04-08T00:28:40.432Z,100.00
2024-04-08T00:31:12.021Z,100.00
2024-04-08T00:33:39.933Z,100.00
2024-04-08T00:36:07.456Z,100.00
2024-04-08T00:38:35.424Z,100.00
2024-04-08T00:41:04.757Z,100.00
2024-04-08T00:43:31.467Z,100.00
2024-04-08T00:46:03.838Z,100.00
2024-04-08T00:48:30.654Z,100.00
2024-04-08T00:50:57.604Z,100.00
2024-04-08T00:53:24.933Z,100.00
2024-04-08T00:55:54.422Z,100.00
2024-04-08T00:58:26.900Z,100.00
2024-04-08T01:00:54.611Z,100.00
2024-04-08T01:03:21.611Z,100.00
2024-04-08T01:05:49.324Z,100.00
2024-04-08T01:08:16.124Z,100.00
2024-04-08T01:10:46.046Z,100.00
2024-04-08T01:13:12.700Z,100.00
2024-04-08T01:15:40.067Z,100.00
2024-04-08T01:18:06.739Z,100.00
2024-04-08T01:20:44.207Z,100.00
2024-04-08T01:23:14.422Z,100.00
2024-04-08T01:25:41.092Z,100.00
2024-04-08T01:28:07.807Z,100.00
2024-04-08T01:30:34.458Z,100.00
2024-04-08T01:33:01.058Z,100.00
2024-04-08T01:35:27.809Z,100.00
2024-04-08T01:37:54.472Z,100.00
2024-04-08T01:40:21.289Z,100.00
2024-04-08T01:42:47.933Z,100.00
2024-04-08T01:45:14.935Z,100.00
2024-04-08T01:47:41.656Z,100.00
2024-04-08T01:50:08.468Z,100.00
2024-04-08T01:52:35.074Z,100.00
2024-04-08T01:55:02.317Z,100.00
2024-04-08T01:57:29.073Z,100.00
2024-04-08T01:59:55.729Z,100.00
2024-04-08T02:02:22.378Z,100.00
2024-04-08T02:04:48.981Z,100.00
2024-04-08T02:07:15.911Z,100.00
2024-04-08T02:09:42.567Z,100.00
2024-04-08T02:12:09.815Z,100.00
2024-04-08T02:14:36.471Z,100.00
2024-04-08T02:17:03.143Z,100.00
2024-04-08T02:19:29.780Z,100.00
2024-04-08T02:21:56.396Z,100.00
2024-04-08T02:24:23.355Z,100.00
2024-04-08T02:26:50.035Z,100.00
2024-04-08T02:29:16.723Z,100.00
2024-04-08T02:31:43.340Z,100.00
2024-04-08T02:34:09.972Z,100.00
2024-04-08T02:36:36.665Z,100.00
2024-04-08T02:39:04.704Z,100.00
2024-04-08T02:41:31.391Z,100.00
2024-04-08T02:43:58.115Z,100.00
2024-04-08T02:46:24.754Z,100.00
2024-04-08T02:48:51.809Z,100.00
2024-04-08T02:51:19.231Z,100.00
2024-04-08T02:53:45.943Z,100.00
2024-04-08T02:56:12.894Z,100.00
2024-04-08T02:58:40.369Z,100.00
2024-04-08T03:01:11.162Z,100.00
2024-04-08T03:03:38.523Z,100.00
2024-04-08T03:06:16.528Z,100.00
2024-04-08T03:08:44.318Z,100.00
2024-04-08T03:11:11.171Z,100.00
2024-04-08T03:13:40.398Z,100.00
2024-04-08T03:16:07.530Z,100.00
2024-04-08T03:18:34.141Z,100.00
2024-04-08T03:21:03.324Z,100.00
2024-04-08T03:23:30.578Z,100.00
2024-04-08T03:26:08.143Z,100.00
2024-04-08T03:28:35.192Z,100.00
2024-04-08T03:31:09.327Z,100.00
2024-04-08T03:33:36.412Z,100.00
2024-04-08T03:36:09.704Z,100.00
2024-04-08T03:38:36.736Z,100.00
2024-04-08T03:41:05.863Z,100.00
2024-04-08T03:43:34.153Z,100.00
2024-04-08T03:46:01.552Z,100.00
2024-04-08T03:48:28.366Z,100.00
2024-04-08T03:50:55.028Z,100.00
2024-04-08T03:53:21.690Z,100.00
2024-04-08T03:55:48.330Z,100.00
2024-04-08T03:58:14.996Z,100.00
2024-04-08T04:00:41.630Z,100.00
2024-04-08T04:03:10.801Z,100.00
2024-04-08T04:05:37.723Z,100.00
2024-04-08T04:08:04.810Z,100.00
2024-04-08T04:10:31.520Z,100.00
2024-04-08T04:12:58.295Z,100.00
2024-04-08T04:15:24.945Z,100.00
2024-04-08T04:17:51.639Z,100.00
2024-04-08T04:20:22.377Z,100.00
2024-04-08T04:22:49.007Z,100.00
2024-04-08T04:25:15.706Z,100.00
2024-04-08T04:27:42.429Z,100.00
2024-04-08T04:30:09.379Z,100.00
2024-04-08T04:32:36.129Z,100.00
2024-04-08T04:35:02.790Z,100.00
2024-04-08T04:37:29.404Z,100.00
2024-04-08T04:39:56.154Z,100.00
2024-04-08T04:42:22.884Z,100.00
2024-04-08T04:44:49.495Z,100.00
2024-04-08T04:47:16.321Z,100.00
2024-04-08T04:49:42.965Z,100.00
2024-04-08T04:52:13.874Z,100.00
2024-04-08T04:54:41.105Z,100.00
2024-04-08T04:57:07.702Z,100.00
2024-04-08T04:59:34.524Z,100.00
2024-04-08T05:02:01.205Z,100.00
2024-04-08T05:04:27.853Z,100.00
2024-04-08T05:06:54.504Z,100.00
2024-04-08T05:09:22.019Z,100.00
2024-04-08T05:11:49.030Z,100.00
2024-04-08T05:14:15.726Z,100.00
2024-04-08T05:16:42.588Z,100.00
2024-04-08T05:19:09.200Z,100.00
2024-04-08T05:21:35.831Z,100.00
2024-04-08T05:24:02.551Z,100.00
2024-04-08T05:26:29.226Z,100.00
2024-04-08T05:28:55.958Z,100.00
2024-04-08T05:31:22.675Z,100.00
2024-04-08T05:33:49.358Z,100.00
2024-04-08T05:36:16.000Z,100.00
2024-04-08T05:38:42.677Z,100.00
2024-04-08T05:41:09.328Z,100.00
2024-04-08T05:43:35.934Z,100.00
2024-04-08T05:46:02.629Z,100.00
2024-04-08T05:48:29.408Z,100.00
2024-04-08T05:50:56.159Z,100.00
2024-04-08T05:53:22.892Z,100.00
2024-04-08T05:55:49.536Z,100.00
2024-04-08T05:58:16.174Z,100.00
2024-04-08T06:00:42.907Z,100.00
2024-04-08T06:03:09.617Z,100.00
2024-04-08T06:05:36.590Z,100.00
2024-04-08T06:08:03.559Z,100.00
2024-04-08T06:10:35.648Z,100.00
2024-04-08T06:13:02.300Z,100.00
2024-04-08T06:15:29.812Z,100.00
2024-04-08T06:17:56.704Z,100.00
2024-04-08T06:20:23.447Z,100.00
2024-04-08T06:22:50.129Z,100.00
2024-04-08T06:25:16.762Z,100.00
2024-04-08T06:27:43.448Z,100.00
2024-04-08T06:30:10.585Z,100.00
2024-04-08T06:32:37.729Z,100.00
2024-04-08T06:35:04.807Z,100.00
2024-04-08T06:37:31.438Z,100.00
2024-04-08T06:39:58.058Z,100.00
2024-04-08T06:42:24.683Z,100.00
2024-04-08T06:44:52.620Z,100.00
2024-04-08T06:47:25.524Z,100.00
2024-04-08T06:49:52.171Z,100.00
2024-04-08T06:52:18.797Z,100.00
2024-04-08T06:54:45.674Z,100.00
2024-04-08T06:57:12.536Z,100.00
2024-04-08T06:59:39.308Z,100.00
2024-04-08T07:02:06.673Z,100.00
2024-04-08T07:04:33.991Z,97.45
2024-04-08T07:07:00.790Z,94.40
2024-04-08T07:09:28.477Z,92.81
2024-04-08T07:11:58.866Z,92.10
2024-04-08T07:14:26.234Z,90.73
2024-04-08T07:16:52.941Z,90.76
2024-04-08T07:19:19.632Z,91.67
2024-04-08T07:21:46.260Z,94.42
2024-04-08T07:24:12.901Z,89.35
2024-04-08T07:26:39.597Z,88.48
2024-04-08T07:29:06.412Z,85.13
2024-04-08T07:31:33.113Z,80.52
2024-04-08T07:33:59.732Z,81.54
2024-04-08T07:36:26.412Z,79.43
2024-04-08T07:39:01.320Z,83.43
2024-04-08T07:41:29.469Z,82.09
2024-04-08T07:43:56.133Z,80.87
2024-04-08T07:46:22.843Z,77.53
2024-04-08T07:48:49.812Z,78.28
2024-04-08T07:51:16.560Z,76.13
2024-04-08T07:53:43.689Z,69.19
2024-04-08T07:56:10.389Z,68.40
2024-04-08T07:58:37.213Z,62.79
2024-04-08T08:01:05.070Z,62.57
2024-04-08T08:03:32.775Z,58.66
2024-04-08T08:06:01.023Z,53.94
2024-04-08T08:08:29.756Z,47.54
2024-04-08T08:11:05.939Z,45.34
2024-04-08T08:13:34.692Z,44.38
2024-04-08T08:16:02.298Z,42.34
2024-04-08T08:18:30.578Z,43.33
2024-04-08T08:20:58.040Z,44.75
2024-04-08T08:23:24.792Z,44.62
2024-04-08T08:25:54.445Z,44.11
2024-04-08T08:28:21.755Z,41.91
2024-04-08T08:30:48.487Z,40.47
2024-04-08T08:33:15.230Z,40.01
2024-04-08T08:35:42.191Z,38.69
2024-04-08T08:38:08.978Z,37.43
2024-04-08T08:40:44.276Z,34.68
2024-04-08T08:43:12.208Z,35.12
2024-04-08T08:45:42.478Z,35.54
2024-04-08T08:48:10.179Z,36.26
2024-04-08T08:50:37.913Z,36.59
2024-04-08T08:53:06.102Z,37.40
2024-04-08T08:55:34.368Z,35.92
2024-04-08T08:58:04.433Z,37.23
2024-04-08T09:00:32.701Z,34.61
2024-04-08T09:03:01.091Z,35.24
2024-04-08T09:05:27.815Z,35.35
2024-04-08T09:07:54.461Z,34.09
2024-04-08T09:10:21.832Z,33.77
2024-04-08T09:12:48.670Z,33.34
2024-04-08T09:15:15.384Z,33.85
2024-04-08T09:17:43.008Z,33.71
2024-04-08T09:20:10.059Z,30.06
2024-04-08T09:22:36.749Z,28.47
2024-04-08T09:25:03.708Z,28.69
2024-04-08T09:27:30.418Z,29.08
2024-04-08T09:29:57.087Z,27.05
2024-04-08T09:32:23.802Z,26.23
2024-04-08T09:34:50.598Z,25.04
2024-04-08T09:37:19.971Z,26.78
2024-04-08T09:39:47.832Z,23.24
2024-04-08T09:42:17.410Z,25.32
2024-04-08T09:44:46.061Z,24.44
2024-04-08T09:47:14.194Z,21.75
2024-04-08T09:49:47.976Z,22.15
2024-04-08T09:52:20.044Z,21.81
2024-04-08T09:54:46.726Z,22.60
2024-04-08T09:57:17.013Z,22.11
2024-04-08T09:59:46.346Z,19.84
2024-04-08T10:02:19.234Z,20.59
2024-04-08T10:04:49.699Z,20.85
2024-04-08T10:07:16.664Z,20.03
2024-04-08T10:09:43.658Z,19.94
2024-04-08T10:12:10.679Z,19.87
2024-04-08T10:14:37.340Z,20.66
2024-04-08T10:17:04.193Z,19.80
2024-04-08T10:19:30.892Z,21.76
2024-04-08T10:22:02.396Z,18.44
2024-04-08T10:24:39.855Z,18.06
2024-04-08T10:27:09.271Z,19.51
2024-04-08T10:29:39.268Z,18.94
2024-04-08T10:32:07.745Z,17.68
2024-04-08T10:34:38.061Z,17.04
2024-04-08T10:37:04.988Z,18.04
2024-04-08T10:39:31.683Z,17.98
2024-04-08T10:41:59.560Z,16.83
2024-04-08T10:44:29.318Z,16.40
2024-04-08T10:46:56.232Z,16.55
2024-04-08T10:49:22.901Z,17.56
2024-04-08T10:51:52.277Z,16.64
2024-04-08T10:54:19.633Z,17.11
2024-04-08T10:56:46.431Z,18.55
2024-04-08T10:59:13.087Z,17.33
2024-04-08T11:01:40.124Z,16.76
2024-04-08T11:04:07.468Z,15.59
2024-04-08T11:06:34.852Z,16.93
2024-04-08T11:09:01.734Z,15.43
2024-04-08T11:11:28.456Z,16.86
2024-04-08T11:13:55.117Z,17.31
2024-04-08T11:16:21.775Z,17.42
2024-04-08T11:18:48.783Z,16.14
2024-04-08T11:21:15.793Z,16.58
2024-04-08T11:23:43.053Z,17.64
2024-04-08T11:26:10.233Z,16.81
2024-04-08T11:28:39.752Z,15.85
2024-04-08T11:31:07.419Z,14.72
2024-04-08T11:33:34.408Z,14.51
2024-04-08T11:36:02.148Z,14.95
2024-04-08T11:38:35.885Z,16.05
2024-04-08T11:41:07.819Z,16.11
2024-04-08T11:43:35.422Z,14.69
2024-04-08T11:46:04.695Z,15.18
2024-04-08T11:48:32.533Z,15.00
2024-04-08T11:50:59.526Z,16.29
2024-04-08T11:53:26.246Z,17.88
2024-04-08T11:55:52.873Z,18.32
2024-04-08T11:58:19.552Z,18.25
2024-04-08T12:00:46.294Z,17.11
2024-04-08T12:03:13.139Z,15.75
2024-04-08T12:05:39.858Z,15.81
2024-04-08T12:08:08.504Z,16.92
2024-04-08T12:10:35.481Z,17.50
2024-04-08T12:13:18.135Z,17.54
2024-04-08T12:15:45.522Z,17.98
2024-04-08T12:18:12.150Z,19.42
2024-04-08T12:20:38.827Z,18.27
2024-04-08T12:23:07.309Z,14.89
2024-04-08T12:25:36.852Z,14.47
2024-04-08T12:28:05.081Z,16.41
2024-04-08T12:30:31.811Z,17.87
2024-04-08T12:32:58.902Z,16.73
2024-04-08T12:35:25.780Z,16.85
2024-04-08T12:37:52.554Z,14.56
2024-04-08T12:40:19.385Z,14.37
2024-04-08T12:42:46.113Z,13.85
2024-04-08T12:45:15.636Z,12.97
2024-04-08T12:47:43.125Z,12.81
2024-04-08T12:50:10.340Z,11.48
2024-04-08T12:52:37.154Z,12.73
2024-04-08T12:55:04.517Z,11.83
2024-04-08T12:57:31.429Z,12.18
2024-04-08T12:59:58.109Z,12.42
2024-04-08T13:02:27.294Z,12.97
2024-04-08T13:04:54.906Z,12.46
2024-04-08T13:07:22.679Z,13.15
2024-04-08T13:09:50.374Z,13.41
2024-04-08T13:12:17.202Z,14.61
2024-04-08T13:14:44.302Z,15.48
2024-04-08T13:17:11.199Z,15.17
2024-04-08T13:19:37.855Z,15.97
2024-04-08T13:22:04.714Z,15.90
2024-04-08T13:24:32.080Z,14.89
2024-04-08T13:26:59.069Z,17.38
2024-04-08T13:29:25.945Z,17.88
2024-04-08T13:31:53.128Z,16.45
2024-04-08T13:34:20.157Z,17.38
2024-04-08T13:36:47.328Z,16.96
2024-04-08T13:39:13.997Z,18.82
2024-04-08T13:41:40.781Z,18.15
2024-04-08T13:44:07.425Z,20.07
2024-04-08T13:46:34.513Z,20.93
2024-04-08T13:49:01.374Z,20.17
2024-04-08T13:51:28.131Z,21.20
2024-04-08T13:53:55.058Z,20.93
2024-04-08T13:56:22.026Z,21.85
2024-04-08T13:58:51.072Z,21.35
2024-04-08T14:01:18.083Z,21.32
2024-04-08T14:03:45.051Z,21.74
2024-04-08T14:06:13.699Z,21.89
2024-04-08T14:08:40.707Z,21.42
2024-04-08T14:11:13.695Z,22.44
2024-04-08T14:13:40.478Z,22.13
2024-04-08T14:16:08.383Z,21.91
2024-04-08T14:18:35.792Z,21.47
2024-04-08T14:21:02.539Z,21.66
2024-04-08T14:23:29.243Z,20.97
2024-04-08T14:25:55.922Z,21.67
2024-04-08T14:28:22.530Z,22.68
2024-04-08T14:30:49.377Z,21.48
2024-04-08T14:33:16.118Z,22.17
2024-04-08T14:35:42.960Z,21.56
2024-04-08T14:38:30.649Z,22.33
2024-04-08T14:40:56.228Z,23.42
2024-04-08T14:43:28.596Z,23.79
2024-04-08T14:46:00.251Z,24.82
2024-04-08T14:48:27.197Z,24.82
2024-04-08T14:50:54.098Z,24.67
2024-04-08T14:53:20.989Z,24.25
2024-04-08T14:55:47.855Z,25.19
2024-04-08T14:58:14.577Z,26.30
2024-04-08T15:00:41.305Z,27.17
2024-04-08T15:03:08.099Z,27.12
2024-04-08T15:05:34.780Z,26.71
2024-04-08T15:08:06.102Z,25.91
2024-04-08T15:10:32.825Z,25.48
2024-04-08T15:12:59.467Z,24.70
2024-04-08T15:15:26.212Z,25.43
2024-04-08T15:17:53.194Z,25.98
2024-04-08T15:20:19.885Z,27.08
2024-04-08T15:22:46.539Z,27.77
2024-04-08T15:25:13.481Z,28.56
2024-04-08T15:27:40.760Z,30.04
2024-04-08T15:30:08.181Z,30.28
2024-04-08T15:32:34.974Z,31.15
2024-04-08T15:35:01.751Z,32.01
2024-04-08T15:37:28.445Z,32.87
2024-04-08T15:39:55.087Z,33.76
2024-04-08T15:42:22.024Z,33.68
2024-04-08T15:44:49.011Z,33.43
2024-04-08T15:47:15.756Z,31.84
2024-04-08T15:49:42.471Z,31.40
2024-04-08T15:52:09.657Z,32.41
2024-04-08T15:54:36.637Z,31.67
2024-04-08T15:57:04.994Z,32.04
2024-04-08T15:59:33.702Z,31.35
2024-04-08T16:02:00.783Z,31.75
2024-04-08T16:04:28.101Z,31.00
2024-04-08T16:06:55.314Z,30.54
2024-04-08T16:09:22.126Z,31.68
2024-04-08T16:11:49.091Z,31.91
2024-04-08T16:14:16.029Z,32.48
2024-04-08T16:16:42.783Z,32.64
2024-04-08T16:19:09.802Z,33.14
2024-04-08T16:21:36.465Z,33.79
2024-04-08T16:24:03.224Z,34.76
2024-04-08T16:26:29.930Z,35.07
2024-04-08T16:29:01.077Z,35.46
2024-04-08T16:31:32.890Z,36.02
2024-04-08T16:34:00.992Z,36.23
2024-04-08T16:36:30.476Z,36.41
2024-04-08T16:38:58.411Z,36.87
2024-04-08T16:41:25.348Z,37.25
2024-04-08T16:43:52.546Z,37.71
2024-04-08T16:46:20.176Z,37.68
2024-04-08T16:48:47.303Z,37.79
2024-04-08T16:51:15.108Z,39.52
2024-04-08T16:53:46.725Z,39.47
2024-04-08T16:56:13.376Z,40.12
2024-04-08T16:58:40.014Z,41.42
2024-04-08T17:01:06.635Z,42.08
2024-04-08T17:03:33.674Z,43.42
2024-04-08T17:06:01.284Z,44.71
2024-04-08T17:08:30.100Z,43.69
2024-04-08T17:11:01.813Z,45.38
2024-04-08T17:13:30.718Z,46.07
2024-04-08T17:15:57.394Z,45.60
2024-04-08T17:18:24.148Z,47.07
2024-04-08T17:20:54.650Z,48.82
2024-04-08T17:23:21.420Z,48.24
2024-04-08T17:25:55.526Z,50.27
2024-04-08T17:28:28.009Z,51.67
2024-04-08T17:31:04.520Z,52.41
2024-04-08T17:33:35.437Z,54.37
2024-04-08T17:36:05.892Z,53.99
2024-04-08T17:38:40.579Z,54.47
2024-04-08T17:41:15.795Z,55.07
2024-04-08T17:43:43.635Z,54.36
2024-04-08T17:46:10.722Z,56.89
2024-04-08T17:48:38.975Z,57.71
2024-04-08T17:51:07.848Z,57.30
2024-04-08T17:53:39.434Z,57.25
2024-04-08T17:56:12.314Z,57.25
2024-04-08T17:58:39.443Z,60.03
2024-04-08T18:01:08.861Z,59.46
2024-04-08T18:03:40.515Z,60.35
2024-04-08T18:06:21.046Z,61.00
2024-04-08T18:08:49.023Z,61.28
2024-04-08T18:11:16.181Z,63.49
2024-04-08T18:13:43.336Z,65.94
2024-04-08T18:16:20.393Z,67.83
2024-04-08T18:18:52.229Z,67.17
2024-04-08T18:21:21.293Z,67.20
2024-04-08T18:23:49.763Z,69.42
2024-04-08T18:26:19.838Z,68.75
2024-04-08T18:28:52.218Z,70.72
2024-04-08T18:31:19.226Z,75.15
2024-04-08T18:33:46.655Z,77.30
2024-04-08T18:36:15.188Z,78.56
2024-04-08T18:38:42.199Z,77.87
2024-04-08T18:41:17.039Z,76.93
2024-04-08T18:43:43.817Z,78.54
2024-04-08T18:46:21.594Z,79.41
2024-04-08T18:48:49.815Z,82.27
2024-04-08T18:51:17.497Z,86.21
2024-04-08T18:53:46.064Z,80.54
2024-04-08T18:56:12.962Z,79.54
2024-04-08T18:58:40.795Z,78.03
2024-04-08T19:01:13.629Z,75.69
2024-04-08T19:03:44.310Z,76.60
2024-04-08T19:06:12.643Z,79.77
2024-04-08T19:08:39.275Z,80.33
2024-04-08T19:11:05.937Z,86.18
2024-04-08T19:13:32.753Z,85.75
2024-04-08T19:16:05.433Z,87.78
2024-04-08T19:18:34.743Z,89.92
2024-04-08T19:21:09.086Z,86.07
2024-04-08T19:23:36.379Z,88.35
2024-04-08T19:26:04.884Z,86.34
2024-04-08T19:28:32.249Z,90.78
2024-04-08T19:30:59.021Z,91.22
2024-04-08T19:33:26.373Z,89.55
2024-04-08T19:35:55.154Z,90.25
2024-04-08T19:38:23.105Z,91.49
2024-04-08T19:41:04.461Z,96.05
2024-04-08T19:43:31.498Z,95.73
2024-04-08T19:46:12.476Z,97.10
2024-04-08T19:48:41.120Z,95.61
2024-04-08T19:51:22.698Z,93.16
2024-04-08T19:53:54.106Z,97.62
2024-04-08T19:56:23.351Z,96.30
2024-04-08T19:58:50.907Z,96.34
2024-04-08T20:01:17.887Z,94.83
2024-04-08T20:03:44.837Z,95.02
2024-04-08T20:06:11.689Z,100.00
2024-04-08T20:08:39.792Z,100.00
2024-04-08T20:11:10.490Z,100.00
2024-04-08T20:13:38.327Z,100.00
2024-04-08T20:16:22.762Z,100.00
2024-04-08T20:18:50.491Z,100.00
2024-04-08T20:21:21.394Z,100.00
2024-04-08T20:23:48.222Z,100.00
2024-04-08T20:26:14.879Z,100.00
2024-04-08T20:28:44.714Z,100.00
2024-04-08T20:31:12.072Z,100.00
2024-04-08T20:33:40.128Z,100.00
2024-04-08T20:36:08.975Z,100.00
2024-04-08T20:38:36.717Z,100.00
2024-04-08T20:41:08.440Z,100.00
2024-04-08T20:43:39.511Z,100.00
2024-04-08T20:46:07.241Z,100.00
2024-04-08T20:48:34.923Z,100.00
2024-04-08T20:51:06.580Z,100.00
2024-04-08T20:53:34.491Z,100.00
2024-04-08T20:56:03.140Z,100.00
2024-04-08T20:58:33.592Z,100.00
2024-04-08T21:01:07.161Z,100.00
2024-04-08T21:03:34.175Z,100.00
2024-04-08T21:06:05.878Z,100.00
2024-04-08T21:08:32.769Z,100.00
2024-04-08T21:11:03.738Z,100.00
2024-04-08T21:13:31.464Z,100.00
2024-04-08T21:16:00.101Z,100.00
2024-04-08T21:18:27.411Z,100.00
2024-04-08T21:21:04.682Z,100.00
2024-04-08T21:23:32.899Z,100.00
2024-04-08T21:26:14.788Z,100.00
2024-04-08T21:28:43.486Z,100.00
2024-04-08T21:31:11.062Z,100.00
2024-04-08T21:33:39.563Z,100.00
2024-04-08T21:36:08.033Z,100.00
2024-04-08T21:38:35.336Z,100.00
2024-04-08T21:41:04.014Z,100.00
2024-04-08T21:43:31.719Z,100.00
2024-04-08T21:46:01.273Z,100.00
2024-04-08T21:48:28.312Z,100.00
2024-04-08T21:50:56.375Z,100.00
2024-04-08T21:53:27.745Z,100.00
2024-04-08T21:55:56.592Z,100.00
2024-04-08T21:58:23.860Z,100.00
2024-04-08T22:00:51.626Z,100.00
2024-04-08T22:03:18.561Z,100.00
2024-04-08T22:05:45.795Z,100.00
2024-04-08T22:08:12.506Z,100.00
2024-04-08T22:10:39.173Z,100.00
2024-04-08T22:13:06.377Z,100.00
2024-04-08T22:15:33.691Z,100.00
2024-04-08T22:18:00.560Z,100.00
2024-04-08T22:20:27.456Z,100.00
2024-04-08T22:22:54.450Z,100.00
2024-04-08T22:25:21.094Z,100.00
2024-04-08T22:27:47.781Z,100.00
2024-04-08T22:30:14.537Z,100.00
2024-04-08T22:32:41.351Z,100.00
2024-04-08T22:35:08.093Z,100.00
2024-04-08T22:37:35.492Z,100.00
2024-04-08T22:40:06.793Z,100.00
2024-04-08T22:42:33.934Z,100.00
2024-04-08T22:45:01.526Z,100.00
2024-04-08T22:47:28.954Z,100.00
2024-04-08T22:49:55.941Z,100.00
2024-04-08T22:52:22.566Z,100.00
2024-04-08T22:54:51.934Z,100.00
2024-04-08T22:57:18.657Z,100.00
2024-04-08T22:59:45.419Z,100.00
2024-04-08T23:02:12.047Z,100.00
2024-04-08T23:04:39.264Z,100.00
2024-04-08T23:07:05.897Z,100.00
2024-04-08T23:09:32.989Z,100.00
2024-04-08T23:11:59.903Z,100.00
2024-04-08T23:14:26.891Z,100.00
2024-04-08T23:16:54.026Z,100.00
2024-04-08T23:19:20.883Z,100.00
2024-04-08T23:21:47.768Z,100.00
2024-04-08T23:24:14.491Z,100.00
2024-04-08T23:26:41.861Z,100.00
2024-04-08T23:29:10.495Z,100.00
2024-04-08T23:31:37.311Z,100.00
2024-04-08T23:34:07.759Z,100.00
2024-04-08T23:36:37.143Z,100.00
2024-04-08T23:39:06.859Z,100.00
2024-04-08T23:41:33.653Z,100.00
2024-04-08T23:44:00.418Z,100.00
2024-04-08T23:46:27.082Z,100.00
2024-04-08T23:48:53.848Z,100.00
2024-04-08T23:51:20.527Z,100.00
2024-04-08T23:53:47.217Z,100.00
2024-04-08T23:56:14.003Z,100.00
2024-04-08T23:58:40.640Z,100.00
